Abbotsford, Wisconsin
Current Conditions -  °F | °C
As of 5:15 AM on Wednesday 26 Nov 2014 (Local Time) from KMDZ Reporting Station
Overcast Overcast  
Wind Chill: -13°   Ceiling: 7000
Heat Index: -8°   Visibility: 10mi
Dew Point: -10°   Wind: 6mph
Humidity: 88%   Direction: 110°ESE
Pressure: 30.06"   Gusts: NA
Location:  44.95°N, 90.32°W
Report Text: KMDZ 261115Z AUTO 11005KT 10SM SCT050 OVC070 M08/M10 A3006 RMK AO2 T10811098
Loading
Personal Weather Stations






























Interactive Weather Map New forecast layout! Learn more

10-Day Weather Forecast

Advertisements
Track Severe Weather on mobile